Time;durP1;ratioP1;P1;durP2;ratioP2;P2;SDS_P1;SDS_P2;PMS_P1;PMS_P2;Temp;Humidity;BMP_temperature;BMP_pressure;BME280_temperature;BME280_humidity;BME280_pressure;Samples;Min_cycle;Max_cycle;Signal;HPM_P1;HPM_P2
2022/09/16 00:02:30;;;;;;;5.03;1.00;;;;;;;14.92;73.64;100111.91;5034722;28;20405;-77
2022/09/16 00:05:36;;;;;;;13.13;1.45;;;;;;;14.95;73.77;100119.56;5034842;28;20122;-77
2022/09/16 00:08:43;;;;;;;9.27;1.50;;;;;;;14.91;73.68;100118.13;5034541;28;20129;-77
2022/09/16 00:11:46;;;;;;;7.60;1.20;;;;;;;14.65;75.66;100118.34;5033622;28;20165;-77
2022/09/16 00:14:52;;;;;;;6.57;1.27;;;;;;;14.64;76.07;100126.31;5034608;28;20501;-77
2022/09/16 00:17:55;;;;;;;10.80;1.17;;;;;;;14.65;76.56;100128.84;5034568;28;20052;-77
2022/09/16 00:20:59;;;;;;;9.23;1.50;;;;;;;14.68;75.64;100127.78;5034323;28;20175;-77
2022/09/16 00:24:03;;;;;;;6.13;1.23;;;;;;;14.69;75.40;100126.00;5033490;28;20049;-78
2022/09/16 00:27:06;;;;;;;10.10;1.45;;;;;;;14.63;76.06;100127.28;5034302;28;20531;-78
2022/09/16 00:30:09;;;;;;;9.02;1.10;;;;;;;14.67;77.32;100130.53;5033780;28;20060;-79
2022/09/16 00:33:14;;;;;;;11.48;1.40;;;;;;;14.60;77.91;100130.16;5033363;28;20479;-78
2022/09/16 00:36:18;;;;;;;5.78;1.48;;;;;;;14.65;77.52;100123.59;5034001;28;20124;-78
2022/09/16 00:39:22;;;;;;;9.30;1.50;;;;;;;14.63;76.49;100122.03;5034116;28;20115;-79
2022/09/16 00:42:25;;;;;;;11.80;2.10;;;;;;;14.40;77.40;100124.56;5034038;28;20056;-80
2022/09/16 00:45:33;;;;;;;6.35;1.42;;;;;;;14.55;77.92;100133.16;5033891;28;20083;-80
2022/09/16 00:48:36;;;;;;;6.53;1.20;;;;;;;14.54;78.15;100127.97;5033882;28;20048;-79
2022/09/16 00:51:41;;;;;;;6.85;1.33;;;;;;;14.33;79.62;100128.63;5033614;28;20512;-79
2022/09/16 00:54:45;;;;;;;7.72;2.33;;;;;;;14.58;79.00;100121.53;5033677;28;20516;-79
2022/09/16 00:57:49;;;;;;;11.95;1.20;;;;;;;14.51;79.18;100121.16;5033483;28;20052;-78
2022/09/16 01:00:52;;;;;;;9.40;1.13;;;;;;;14.48;79.05;100118.72;5033659;28;20044;-77
2022/09/16 01:04:01;;;;;;;6.65;1.45;;;;;;;14.55;79.30;100112.09;5033464;28;20108;-77
2022/09/16 01:07:04;;;;;;;5.78;1.35;;;;;;;14.53;79.49;100113.16;5032568;28;20136;-78
2022/09/16 01:10:08;;;;;;;5.05;1.10;;;;;;;14.49;79.55;100109.91;5033475;28;20049;-78
2022/09/16 01:13:14;;;;;;;5.85;1.17;;;;;;;14.52;78.67;100106.22;5033489;28;20420;-78
2022/09/16 01:16:31;;;;;;;4.38;1.00;;;;;;;14.46;78.87;100107.50;5033393;28;20048;-78
2022/09/16 01:20:00;;;;;;;6.93;1.35;;;;;;;14.42;79.89;100111.28;5033103;28;20558;-79
2022/09/16 01:23:04;;;;;;;6.55;1.23;;;;;;;14.56;78.93;100108.50;5033117;28;20437;-79
2022/09/16 01:26:40;;;;;;;7.38;1.00;;;;;;;14.53;78.55;100103.47;5021095;28;20505;-80
2022/09/16 01:30:06;;;;;;;9.27;2.50;;;;;;;14.41;79.69;100099.09;5025864;28;20045;-80
2022/09/16 01:33:26;;;;;;;8.73;1.40;;;;;;;14.45;78.50;100108.44;5032397;28;20052;-79
2022/09/16 01:36:49;;;;;;;5.68;1.23;;;;;;;14.32;79.50;100110.28;5020878;28;20160;-79
2022/09/16 01:40:09;;;;;;;6.18;1.17;;;;;;;14.35;79.75;100112.69;5022454;28;20044;-79
2022/09/16 01:43:49;;;;;;;10.60;1.58;;;;;;;14.31;77.61;100109.47;5033061;28;20125;-79
2022/09/16 01:47:24;;;;;;;8.20;1.33;;;;;;;14.07;79.35;100117.38;5032093;28;20056;-79
2022/09/16 01:50:35;;;;;;;11.77;1.20;;;;;;;13.97;80.49;100116.38;5032603;28;20043;-79
2022/09/16 01:53:48;;;;;;;7.75;0.90;;;;;;;14.11;80.62;100121.47;5032529;28;20088;-79
2022/09/16 01:57:06;;;;;;;8.45;1.33;;;;;;;13.96;81.54;100110.28;5032691;28;20125;-79
2022/09/16 02:00:13;;;;;;;13.27;2.05;;;;;;;14.00;80.02;100116.13;5032073;28;20037;-78
2022/09/16 02:03:39;;;;;;;7.45;1.10;;;;;;;14.08;80.87;100112.97;5032410;28;20124;-78
2022/09/16 02:06:45;;;;;;;7.85;1.08;;;;;;;13.99;80.96;100114.47;5032320;28;20052;-78
2022/09/16 02:09:55;;;;;;;5.85;1.15;;;;;;;14.04;80.19;100112.34;5032359;28;20056;-78
2022/09/16 02:13:06;;;;;;;10.25;1.92;;;;;;;13.98;79.94;100106.72;5032407;28;20111;-78
2022/09/16 02:16:17;;;;;;;9.65;1.52;;;;;;;13.87;80.62;100110.94;5032236;28;20095;-79
2022/09/16 02:19:28;;;;;;;12.82;1.63;;;;;;;13.80;79.86;100114.97;5031374;28;20132;-79
2022/09/16 02:22:38;;;;;;;13.32;1.05;;;;;;;13.98;80.75;100112.81;5032280;28;20088;-78
2022/09/16 02:25:45;;;;;;;7.72;1.50;;;;;;;14.02;80.60;100116.03;5032284;28;20103;-78
2022/09/16 02:28:52;;;;;;;7.90;1.23;;;;;;;13.98;80.71;100111.97;5032046;28;20171;-78
2022/09/16 02:31:59;;;;;;;8.27;1.10;;;;;;;13.92;80.67;100108.81;4992523;28;20209;-79
2022/09/16 02:35:05;;;;;;;5.40;1.15;;;;;;;13.90;80.31;100123.03;4992668;28;20101;-79
2022/09/16 02:38:21;;;;;;;7.00;1.30;;;;;;;13.96;80.30;100122.56;4992864;28;20089;-79
2022/09/16 02:41:24;;;;;;;7.63;1.00;;;;;;;13.99;80.58;100119.72;4992717;28;20436;-79
2022/09/16 02:44:29;;;;;;;5.72;1.02;;;;;;;13.84;80.88;100120.84;4992695;28;20088;-79
2022/09/16 02:48:04;;;;;;;7.00;1.30;;;;;;;13.85;80.88;100117.28;4992789;28;20049;-79
2022/09/16 02:51:25;;;;;;;7.60;1.27;;;;;;;13.97;80.31;100113.72;4992507;28;20081;-79
2022/09/16 02:55:13;;;;;;;9.70;1.08;;;;;;;13.91;81.02;100122.94;4992428;28;20414;-79
2022/09/16 02:58:16;;;;;;;8.60;1.55;;;;;;;13.96;81.03;100112.06;4991874;28;20137;-79
2022/09/16 03:01:21;;;;;;;8.32;1.15;;;;;;;13.89;81.38;100118.72;4992494;28;20417;-77
2022/09/16 03:04:25;;;;;;;8.38;1.13;;;;;;;13.91;81.12;100114.19;4992541;28;20413;-77
2022/09/16 03:07:28;;;;;;;10.48;1.52;;;;;;;13.92;81.34;100111.44;4992466;28;20180;-77
2022/09/16 03:10:41;;;;;;;7.55;1.23;;;;;;;13.80;81.54;100108.88;4992300;28;20076;-77
2022/09/16 03:13:53;;;;;;;7.25;2.15;;;;;;;13.78;81.67;100108.13;4995320;28;20053;-77
2022/09/16 03:17:27;;;;;;;6.45;1.08;;;;;;;13.58;82.59;100097.28;4996035;28;20565;-77
2022/09/16 03:20:45;;;;;;;14.43;2.05;;;;;;;13.58;82.45;100096.44;4996052;28;20126;-77
2022/09/16 03:24:10;;;;;;;13.40;1.50;;;;;;;13.51;82.34;100096.03;4996060;28;20053;-77
2022/09/16 03:27:37;;;;;;;8.82;1.27;;;;;;;13.56;82.33;100107.06;4995929;28;20506;-77
2022/09/16 03:30:55;;;;;;;7.68;1.00;;;;;;;13.60;81.75;100103.28;5015762;28;20056;-77
2022/09/16 03:34:20;;;;;;;8.70;0.85;;;;;;;13.48;82.18;100101.50;5035391;28;20428;-77
2022/09/16 03:37:26;;;;;;;8.57;0.98;;;;;;;13.60;81.70;100092.75;5035261;28;20044;-77
2022/09/16 03:40:32;;;;;;;12.77;1.15;;;;;;;13.72;80.63;100101.56;5035012;28;20132;-78
2022/09/16 03:43:35;;;;;;;10.65;1.10;;;;;;;13.44;81.95;100089.56;5034910;28;20171;-78
2022/09/16 03:46:40;;;;;;;8.63;1.15;;;;;;;13.43;82.25;100082.59;5034806;28;20056;-78
2022/09/16 03:49:44;;;;;;;8.85;1.80;;;;;;;13.47;82.04;100084.09;5035203;28;20087;-78
2022/09/16 03:52:47;;;;;;;8.90;1.63;;;;;;;13.43;82.34;100095.72;5034708;28;20044;-79
2022/09/16 03:55:50;;;;;;;6.10;1.20;;;;;;;13.48;81.85;100086.59;5034990;28;20072;-79
2022/09/16 03:58:54;;;;;;;11.80;1.20;;;;;;;13.39;82.56;100089.03;5034664;28;20551;-78
2022/09/16 04:01:57;;;;;;;9.32;1.27;;;;;;;13.39;82.54;100089.88;5034681;28;20156;-79
2022/09/16 04:05:00;;;;;;;;;;;;;;;13.21;83.65;100089.38;5035146;28;20044;-76
2022/09/16 04:08:03;;;;;;;11.70;2.35;;;;;;;13.47;82.64;100084.09;5034600;28;19920;-78
2022/09/16 04:11:07;;;;;;;9.77;1.08;;;;;;;13.44;82.69;100084.31;5034404;28;20044;-79
2022/09/16 04:14:10;;;;;;;;;;;;;;;13.28;83.38;100081.09;5034912;28;20090;-74
2022/09/16 04:17:13;;;;;;;18.52;1.50;;;;;;;13.30;83.04;100074.75;5034771;28;19959;-78
2022/09/16 04:20:17;;;;;;;2.65;0.85;;;;;;;13.23;83.29;100089.25;5034288;28;20508;-77
2022/09/16 04:23:23;;;;;;;3.90;1.08;;;;;;;12.97;84.65;100085.81;5034638;28;20056;-77
2022/09/16 04:26:27;;;;;;;5.10;1.00;;;;;;;13.20;83.53;100090.28;5034931;28;20056;-76
2022/09/16 04:29:32;;;;;;;6.60;1.90;;;;;;;13.22;83.33;100083.16;5033637;28;20044;-76
2022/09/16 04:32:36;;;;;;;5.00;1.00;;;;;;;13.11;83.53;100082.22;5041728;28;20043;-78
2022/09/16 04:35:40;;;;;;;7.15;1.15;;;;;;;13.31;82.90;100076.44;5049818;28;20471;-77
2022/09/16 04:38:46;;;;;;;5.40;1.48;;;;;;;13.26;83.12;100079.38;5034096;28;20049;-79
2022/09/16 04:42:11;;;;;;;9.18;1.80;;;;;;;13.24;83.17;100086.56;5038699;28;20566;-78
2022/09/16 04:45:14;;;;;;;9.25;1.30;;;;;;;13.23;83.25;100084.81;5048237;28;20516;-76
2022/09/16 04:48:18;;;;;;;6.25;1.75;;;;;;;13.14;83.40;100082.00;5049028;28;20118;-76
2022/09/16 04:51:22;;;;;;;11.23;1.80;;;;;;;13.32;82.84;100093.03;5047780;28;20040;-79
2022/09/16 04:54:26;;;;;;;4.90;1.00;;;;;;;13.24;82.69;100086.56;5048032;28;20044;-77
2022/09/16 04:57:33;;;;;;;15.90;1.33;;;;;;;13.15;83.43;100081.91;5048782;28;20416;-75
2022/09/16 05:00:37;;;;;;;6.13;0.90;;;;;;;13.15;83.66;100081.06;5048057;28;20094;-76
2022/09/16 05:03:46;;;;;;;6.40;0.93;;;;;;;13.30;83.09;100084.44;5047712;28;20043;-76
2022/09/16 05:06:50;;;;;;;7.50;1.55;;;;;;;13.38;82.92;100072.44;5048363;28;20556;-76
2022/09/16 05:09:54;;;;;;;8.52;1.80;;;;;;;13.30;82.87;100079.16;5048777;28;20093;-77
2022/09/16 05:12:58;;;;;;;7.97;1.33;;;;;;;13.19;83.46;100090.41;5029886;28;20056;-77
2022/09/16 05:16:13;;;;;;;9.85;1.45;;;;;;;13.19;83.51;100080.75;5028712;28;20048;-80
2022/09/16 05:19:17;;;;;;;8.98;2.30;;;;;;;13.04;83.78;100079.19;5040318;28;20100;-80
2022/09/16 05:22:21;;;;;;;9.48;1.20;;;;;;;13.06;83.99;100077.31;5048514;28;20147;-80
2022/09/16 05:25:24;;;;;;;6.82;1.20;;;;;;;13.08;83.68;100077.19;5048895;28;20040;-79
2022/09/16 05:28:27;;;;;;;15.85;2.67;;;;;;;13.05;83.36;100078.25;5049157;28;20052;-79
2022/09/16 05:31:32;;;;;;;;;;;;;;;12.99;83.40;100076.06;5048923;28;20312;-79
2022/09/16 05:34:36;;;;;;;10.95;1.45;;;;;;;13.00;83.38;100075.09;5027745;28;19923;-79
2022/09/16 05:37:40;;;;;;;7.18;1.30;;;;;;;12.74;84.38;100080.34;5028312;28;20044;-80
2022/09/16 05:40:43;;;;;;;8.73;1.45;;;;;;;12.85;83.49;100079.63;5028089;28;20041;-80
2022/09/16 05:43:47;;;;;;;8.93;1.50;;;;;;;12.76;83.91;100086.34;5028487;28;20417;-77
2022/09/16 05:46:51;;;;;;;7.63;1.30;;;;;;;12.83;83.96;100088.53;5032748;28;20074;-77
2022/09/16 05:49:55;;;;;;;9.52;1.33;;;;;;;12.76;84.36;100086.34;5031490;28;20044;-77
2022/09/16 05:52:58;;;;;;;8.20;2.03;;;;;;;12.88;83.96;100089.06;5029691;28;20053;-77
2022/09/16 05:56:07;;;;;;;6.40;1.05;;;;;;;12.87;84.41;100093.47;5028776;28;20071;-77
2022/09/16 05:59:13;;;;;;;8.02;1.15;;;;;;;12.94;83.97;100094.72;5028326;28;20060;-77
2022/09/16 06:02:16;;;;;;;7.57;1.30;;;;;;;13.11;83.61;100084.84;5030975;28;20048;-78
2022/09/16 06:05:19;;;;;;;7.05;1.10;;;;;;;13.17;83.50;100090.50;5030831;28;20076;-77
2022/09/16 06:08:22;;;;;;;8.63;1.40;;;;;;;13.22;82.95;100093.66;5031306;28;20048;-77
2022/09/16 06:11:27;;;;;;;11.13;1.48;;;;;;;13.16;83.52;100088.84;5030880;28;20347;-77
2022/09/16 06:14:30;;;;;;;15.40;1.90;;;;;;;13.23;83.62;100090.06;5031952;28;20048;-77
2022/09/16 06:17:33;;;;;;;;;;;;;;;13.10;84.46;100088.41;5032025;28;20111;-78
2022/09/16 06:20:36;;;;;;;6.90;1.27;;;;;;;13.01;84.45;100085.47;5037386;28;19943;-79
2022/09/16 06:23:41;;;;;;;7.82;1.42;;;;;;;13.19;83.86;100086.00;5046414;28;20511;-80
2022/09/16 06:26:48;;;;;;;7.05;2.08;;;;;;;13.12;84.05;100082.13;5046857;28;20302;-79
2022/09/16 06:29:51;;;;;;;6.97;1.15;;;;;;;13.25;84.02;100088.22;5046429;28;20261;-76
2022/09/16 06:32:55;;;;;;;10.10;1.55;;;;;;;13.33;83.77;100087.66;5046302;28;20067;-78
2022/09/16 06:36:15;;;;;;;9.00;1.35;;;;;;;13.31;84.05;100094.00;5046760;28;20047;-77
2022/09/16 06:39:18;;;;;;;6.18;1.13;;;;;;;13.29;84.50;100093.25;5046876;28;20052;-77
2022/09/16 06:42:21;;;;;;;6.35;1.00;;;;;;;13.38;84.71;100085.56;5046821;28;20378;-78
2022/09/16 06:45:28;;;;;;;6.03;1.15;;;;;;;13.26;85.37;100102.19;5045813;28;20052;-78
2022/09/16 06:48:32;;;;;;;4.63;1.10;;;;;;;13.38;84.93;100088.19;5050764;28;20079;-79
2022/09/16 06:51:39;;;;;;;10.55;1.15;;;;;;;13.44;84.70;100089.56;5050689;28;20067;-78
2022/09/16 06:54:46;;;;;;;4.82;1.27;;;;;;;13.41;83.28;100080.09;5052117;28;20044;-79
2022/09/16 06:57:52;;;;;;;4.75;1.15;;;;;;;13.42;81.64;100080.94;5050490;28;20102;-79
2022/09/16 07:01:07;;;;;;;10.93;1.52;;;;;;;13.24;78.33;100088.28;5038745;28;20097;-78
2022/09/16 07:04:12;;;;;;;10.45;1.23;;;;;;;13.24;75.88;100085.66;5030038;28;20044;-80
2022/09/16 07:07:15;;;;;;;7.32;1.85;;;;;;;13.40;75.21;100080.19;5030108;28;20052;-79
2022/09/16 07:10:19;;;;;;;9.93;1.27;;;;;;;13.49;72.42;100074.28;5030091;28;20502;-80
2022/09/16 07:13:22;;;;;;;7.80;1.60;;;;;;;13.75;72.66;100082.09;5030595;28;20102;-79
2022/09/16 07:16:26;;;;;;;14.95;1.52;;;;;;;13.71;71.20;100078.84;5028968;28;20045;-80
2022/09/16 07:19:29;;;;;;;7.15;1.08;;;;;;;13.77;70.75;100070.50;5046339;28;20075;-82
2022/09/16 07:22:32;;;;;;;11.15;1.42;;;;;;;13.77;69.43;100083.66;5050717;28;20032;-80
2022/09/16 07:25:36;;;;;;;12.30;1.40;;;;;;;14.13;67.50;100072.22;5051011;28;20106;-80
2022/09/16 07:28:45;;;;;;;6.93;0.98;;;;;;;13.94;66.89;100070.13;5050266;28;20102;-80
2022/09/16 07:31:48;;;;;;;6.03;1.20;;;;;;;13.93;66.65;100083.38;5049848;28;20118;-80
2022/09/16 07:34:52;;;;;;;5.47;0.90;;;;;;;13.92;65.71;100097.47;5049130;28;20087;-81
2022/09/16 07:37:56;;;;;;;10.50;1.80;;;;;;;13.70;64.99;100093.78;5050126;28;20469;-80
2022/09/16 07:41:05;;;;;;;11.30;1.23;;;;;;;13.73;65.29;100083.03;5049811;28;20043;-80
2022/09/16 07:44:12;;;;;;;10.50;1.50;;;;;;;13.99;65.11;100089.97;5049682;28;20080;-81
2022/09/16 07:47:15;;;;;;;5.15;1.40;;;;;;;13.93;65.49;100091.25;5049571;28;20562;-82
2022/09/16 07:50:19;;;;;;;6.03;1.50;;;;;;;13.88;65.52;100096.00;5049908;28;20039;-81
2022/09/16 07:53:22;;;;;;;6.22;1.67;;;;;;;14.07;65.99;100098.13;5050564;28;20510;-81
2022/09/16 07:56:35;;;;;;;7.13;1.08;;;;;;;14.11;65.17;100091.72;5050242;28;20128;-81
2022/09/16 07:59:43;;;;;;;12.93;2.58;;;;;;;13.93;64.34;100096.53;5049770;28;20510;-84
2022/09/16 08:02:47;;;;;;;6.63;1.05;;;;;;;14.00;64.60;100103.00;5029514;28;20067;-85
2022/09/16 08:06:02;;;;;;;5.65;1.80;;;;;;;13.95;64.70;100092.84;5028140;28;20064;-91
2022/09/16 08:09:11;;;;;;;6.65;1.13;;;;;;;13.92;65.42;100100.94;5033223;28;20067;-84
2022/09/16 08:12:16;;;;;;;6.80;1.13;;;;;;;14.27;65.63;100102.78;5048125;28;20052;-75
2022/09/16 08:15:19;;;;;;;9.02;1.23;;;;;;;14.37;63.41;100093.22;5047887;28;20371;-79
2022/09/16 08:18:22;;;;;;;6.38;0.93;;;;;;;14.34;63.42;100095.25;5048303;28;20471;-88
2022/09/16 08:21:28;;;;;;;8.32;1.40;;;;;;;14.49;62.77;100099.38;5048793;28;20569;-88
2022/09/16 08:24:31;;;;;;;5.78;0.90;;;;;;;14.51;62.76;100105.38;5048177;28;20052;-84
2022/09/16 08:27:35;;;;;;;23.85;1.15;;;;;;;14.55;61.71;100101.56;5049031;28;20118;-85
2022/09/16 08:30:40;;;;;;;9.48;1.10;;;;;;;14.70;61.80;100098.72;5045573;28;20082;-85
2022/09/16 08:33:47;;;;;;;5.40;0.93;;;;;;;14.79;61.64;100092.75;5049065;28;20128;-82
2022/09/16 08:36:50;;;;;;;7.88;1.05;;;;;;;15.06;61.58;100095.91;5050466;28;20051;-83
2022/09/16 08:39:54;;;;;;;4.45;1.25;;;;;;;15.08;61.35;100088.69;5048896;28;20083;-83
2022/09/16 08:43:23;;;;;;;6.75;0.98;;;;;;;15.15;58.99;100096.13;5042026;28;20039;-84
2022/09/16 08:46:36;;;;;;;4.65;0.90;;;;;;;14.83;59.84;100105.56;5028701;28;20048;-80
2022/09/16 08:49:43;;;;;;;9.57;0.88;;;;;;;14.70;61.02;100109.25;5028382;28;20096;-81
2022/09/16 08:52:47;;;;;;;8.80;2.92;;;;;;;14.75;60.47;100113.22;5031067;28;20052;-80
2022/09/16 08:55:53;;;;;;;4.78;1.02;;;;;;;14.55;61.09;100125.25;5048063;28;20122;-79
2022/09/16 08:59:00;;;;;;;6.20;1.05;;;;;;;14.37;61.87;100121.31;5048198;28;20459;-79
2022/09/16 09:02:25;;;;;;;4.50;1.13;;;;;;;14.49;62.06;100122.22;5043102;28;20040;-80
2022/09/16 09:09:40;;;;;;;8.40;1.58;;;;;;;14.79;61.86;100119.91;5052255;28;20115;-80
2022/09/16 09:13:07;;;;;;;7.70;1.40;;;;;;;14.89;62.17;100110.34;5052866;28;20524;-79
2022/09/16 09:16:51;;;;;;;4.63;0.77;;;;;;;15.06;60.81;100116.97;5052933;28;20047;-80
2022/09/16 09:20:15;;;;;;;;;;;;;;;14.74;61.34;100118.56;5030011;28;20456;-80
2022/09/16 09:23:27;;;;;;;6.27;1.00;;;;;;;14.82;61.90;100124.94;5044307;28;20003;-80
2022/09/16 09:26:54;;;;;;;6.13;1.10;;;;;;;14.60;62.92;100117.00;5047984;28;20048;-81
2022/09/16 09:30:27;;;;;;;8.85;5.72;;;;;;;14.75;61.23;100107.94;5048343;28;20118;-81
2022/09/16 09:33:44;;;;;;;4.70;1.10;;;;;;;14.86;61.28;100110.59;5048849;28;20103;-80
2022/09/16 09:37:00;;;;;;;4.50;0.80;;;;;;;14.81;61.25;100117.19;5049698;28;20097;-80
2022/09/16 09:40:28;;;;;;;5.57;0.70;;;;;;;14.77;62.41;100116.56;5052316;28;20132;-77
2022/09/16 09:43:51;;;;;;;5.00;0.80;;;;;;;14.76;61.16;100119.31;5052745;28;20455;-80
2022/09/16 09:46:59;;;;;;;4.82;0.93;;;;;;;14.69;61.08;100118.09;5028540;28;20048;-80
2022/09/16 09:50:25;;;;;;;3.72;0.70;;;;;;;14.64;61.36;100098.25;5047098;28;20459;-81
2022/09/16 09:53:35;;;;;;;3.05;0.50;;;;;;;14.72;60.79;100092.38;5047783;28;20094;-80
2022/09/16 09:56:44;;;;;;;6.85;1.50;;;;;;;15.04;60.20;100087.28;5048021;28;20390;-81
2022/09/16 10:00:17;;;;;;;5.90;1.13;;;;;;;15.11;58.59;100092.91;5047617;28;20131;-81
2022/09/16 10:03:21;;;;;;;2.80;0.53;;;;;;;15.27;58.42;100085.47;5028994;28;20171;-81
2022/09/16 10:06:32;;;;;;;4.07;0.57;;;;;;;15.50;57.86;100073.09;5026653;28;20575;-81
2022/09/16 10:09:36;;;;;;;4.43;0.77;;;;;;;15.71;58.46;100075.00;5026956;28;20461;-81
2022/09/16 10:12:40;;;;;;;4.95;0.90;;;;;;;15.38;58.11;100068.84;5037021;28;20075;-81
2022/09/16 10:15:44;;;;;;;3.08;0.90;;;;;;;15.54;57.82;100071.06;5045579;28;20126;-81
2022/09/16 10:19:24;;;;;;;4.07;0.77;;;;;;;15.45;57.78;100070.00;5047944;28;20095;-81
2022/09/16 10:22:29;;;;;;;2.95;0.60;;;;;;;15.65;58.24;100072.84;5047530;28;20075;-80
2022/09/16 10:25:33;;;;;;;3.28;0.50;;;;;;;15.72;58.96;100074.03;5047635;28;20424;-81
2022/09/16 10:28:38;;;;;;;7.32;0.95;;;;;;;15.95;59.30;100080.94;5047613;28;20471;-81
2022/09/16 10:31:42;;;;;;;5.50;0.85;;;;;;;16.00;57.95;100077.91;5026565;28;20076;-80
2022/09/16 10:34:47;;;;;;;2.30;0.40;;;;;;;15.79;57.03;100075.22;5026731;28;20469;-81
2022/09/16 10:37:58;;;;;;;3.05;0.70;;;;;;;15.58;58.20;100091.78;5026382;28;20076;-82
2022/09/16 10:41:17;;;;;;;5.05;1.98;;;;;;;15.07;58.69;100094.94;5026845;28;20056;-80
2022/09/16 10:44:27;;;;;;;10.32;6.47;;;;;;;15.09;59.55;100093.03;5045230;28;20084;-80
2022/09/16 10:47:35;;;;;;;5.82;1.52;;;;;;;15.09;62.08;100103.56;5047307;28;20075;-82
2022/09/16 10:50:38;;;;;;;12.30;5.78;;;;;;;14.91;61.91;100098.88;5046624;28;20520;-81
2022/09/16 10:53:50;;;;;;;4.82;2.30;;;;;;;15.06;62.89;100105.56;5044704;28;20469;-81
2022/09/16 10:56:54;;;;;;;5.07;1.92;;;;;;;15.09;63.81;100100.94;5045638;28;20519;-81
2022/09/16 11:00:22;;;;;;;7.47;2.65;;;;;;;15.08;63.49;100108.94;5025138;28;20070;-82
2022/09/16 11:03:45;;;;;;;3.88;0.80;;;;;;;15.02;63.64;100099.72;5026565;28;20072;-81
2022/09/16 11:06:56;;;;;;;2.53;0.60;;;;;;;15.05;61.44;100096.84;5025536;28;20068;-81
2022/09/16 11:10:37;;;;;;;2.63;0.50;;;;;;;15.00;62.41;100093.75;5038805;28;20083;-81
2022/09/16 11:13:49;;;;;;;9.70;3.08;;;;;;;14.88;63.88;100092.06;5044930;28;20095;-82
2022/09/16 11:17:22;;;;;;;3.92;1.50;;;;;;;15.08;64.09;100093.97;5045936;28;20172;-80
2022/09/16 11:20:53;;;;;;;4.47;1.45;;;;;;;15.21;62.87;100093.00;5040457;28;20103;-85
2022/09/16 11:24:16;;;;;;;11.15;4.30;;;;;;;15.38;61.52;100094.31;5047305;28;20044;-87
2022/09/16 11:27:23;;;;;;;;;;;;;;;15.44;63.35;100089.38;5035610;28;20044;-78
2022/09/16 11:30:30;;;;;;;1.25;0.30;;;;;;;15.60;61.27;100078.47;5046469;28;20012;-86
2022/09/16 11:33:40;;;;;;;5.53;0.60;;;;;;;15.97;58.77;100092.19;5047517;28;20129;-81
2022/09/16 11:36:59;;;;;;;4.70;0.50;;;;;;;15.72;57.34;100093.31;5054473;28;20104;-81
2022/09/16 11:40:22;;;;;;;5.82;0.63;;;;;;;15.71;58.16;100094.28;5054029;28;20118;-85
2022/09/16 11:44:04;;;;;;;3.53;1.23;;;;;;;15.86;58.51;100072.91;5042440;28;20056;-87
2022/09/16 11:48:26;;;;;;;4.10;0.68;;;;;;;16.70;56.82;100071.19;5050370;28;20122;-89
2022/09/16 11:51:57;;;;;;;5.85;2.47;;;;;;;16.72;53.97;100072.72;5044209;28;20044;-87
2022/09/16 11:55:47;;;;;;;2.25;0.35;;;;;;;16.08;54.30;100072.00;5048948;28;20496;-87
2022/09/16 11:59:09;;;;;;;4.38;0.57;;;;;;;16.16;53.26;100069.56;5033713;28;20520;-89
2022/09/16 12:11:35;;;;;;;2.40;0.57;;;;;;;16.11;53.59;100061.19;5048223;28;20118;-90
2022/09/16 12:15:46;;;;;;;2.13;0.40;;;;;;;16.28;52.04;100043.00;5039190;28;20083;-93
2022/09/16 13:01:18;;;;;;;2.28;0.88;;;;;;;23.83;32.95;100008.44;5048247;28;20037;-85
2022/09/16 13:09:47;;;;;;;5.20;1.00;;;;;;;18.64;41.13;100017.78;5064674;28;20080;-90
2022/09/16 13:12:53;;;;;;;3.00;0.70;;;;;;;17.85;42.74;100024.97;5078587;28;20647;-85
2022/09/16 13:16:06;;;;;;;2.60;0.40;;;;;;;17.23;45.39;100034.06;5089622;28;20090;-87
2022/09/16 13:19:30;;;;;;;2.70;0.50;;;;;;;17.02;46.62;100033.28;5088739;28;20236;-88
2022/09/16 13:22:47;;;;;;;4.57;0.70;;;;;;;17.06;47.72;100035.50;5074921;28;20144;-87
2022/09/16 13:30:40;;;;;;;3.17;0.60;;;;;;;16.80;47.31;100029.84;5089251;28;20441;-87
2022/09/16 13:33:57;;;;;;;2.53;0.50;;;;;;;16.65;47.75;100033.78;5076756;28;20538;-87
2022/09/16 13:37:14;;;;;;;3.40;0.80;;;;;;;16.46;48.14;100035.34;5088450;28;20120;-88
2022/09/16 13:40:29;;;;;;;4.82;0.77;;;;;;;16.56;48.20;100034.56;5088864;28;20055;-88
2022/09/16 13:43:52;;;;;;;4.30;0.70;;;;;;;16.24;48.27;100032.81;5088447;28;20518;-87
2022/09/16 13:47:15;;;;;;;2.42;0.43;;;;;;;16.29;48.04;100033.28;5086851;28;20294;-85
2022/09/16 13:50:42;;;;;;;3.45;0.60;;;;;;;16.43;48.85;100030.34;5087160;28;20086;-89
2022/09/16 14:04:46;;;;;;;3.78;0.70;;;;;;;17.18;44.46;100038.91;5088597;28;20114;-84
2022/09/16 14:13:36;;;;;;;1.40;0.50;;;;;;;16.11;47.22;100069.09;5069126;28;20063;-87
2022/09/16 14:16:43;;;;;;;1.13;0.30;;;;;;;16.05;47.99;100083.66;5067072;28;20094;-87
2022/09/16 14:19:50;;;;;;;2.10;0.20;;;;;;;16.30;47.35;100084.25;5086267;28;20059;-84
2022/09/16 14:23:26;;;;;;;1.85;0.30;;;;;;;15.95;48.48;100075.66;5090258;28;20089;-85
2022/09/16 14:26:35;;;;;;;0.98;0.10;;;;;;;15.52;50.31;100118.63;5092119;28;20132;-85
2022/09/16 14:29:38;;;;;;;1.13;0.17;;;;;;;15.49;51.24;100096.94;5091853;28;20054;-87
2022/09/16 14:32:47;;;;;;;1.35;0.20;;;;;;;15.46;52.52;100113.00;5091509;28;20411;-87
2022/09/16 14:35:54;;;;;;;1.30;0.22;;;;;;;14.99;53.44;100118.38;5091825;28;20124;-88
2022/09/16 14:39:30;;;;;;;1.08;0.10;;;;;;;15.02;54.28;100120.78;5092495;28;20568;-86
2022/09/16 14:47:44;;;;;;;3.70;0.55;;;;;;;14.56;57.66;100126.91;5085797;28;20050;-93
2022/09/16 14:50:49;;;;;;;4.85;0.40;;;;;;;13.84;63.00;100128.72;5074686;28;20109;-85
2022/09/16 14:53:59;;;;;;;1.77;0.40;;;;;;;14.10;63.57;100142.59;5087067;28;20071;-88
2022/09/16 14:57:53;;;;;;;2.53;0.40;;;;;;;14.22;64.27;100130.34;5088859;28;20086;-93
2022/09/16 15:06:18;;;;;;;1.77;0.30;;;;;;;15.21;60.02;100106.19;5086275;28;20036;-89
2022/09/16 15:14:26;;;;;;;1.63;0.50;;;;;;;16.83;56.20;100092.97;5088334;28;20158;-87
2022/09/16 15:17:35;;;;;;;2.58;0.70;;;;;;;16.73;57.13;100110.53;5091040;28;20043;-89
2022/09/16 15:26:41;;;;;;;3.00;1.10;;;;;;;15.94;58.98;100110.88;5093266;28;20046;-92
2022/09/16 15:30:04;;;;;;;2.35;1.13;;;;;;;14.94;60.83;100110.00;5079700;28;20078;-91
2022/09/16 15:33:35;;;;;;;8.13;2.45;;;;;;;16.17;56.83;100108.16;5090726;28;20105;-87
2022/09/16 15:36:41;;;;;;;5.20;0.70;;;;;;;17.11;54.48;100115.22;5079013;28;20051;-90
2022/09/16 15:39:47;;;;;;;1.65;0.35;;;;;;;16.84;53.49;100113.09;5091520;28;20043;-90
2022/09/16 15:43:11;;;;;;;2.55;0.35;;;;;;;16.54;54.00;100099.84;5089551;28;20410;-88
2022/09/16 15:46:23;;;;;;;1.90;0.40;;;;;;;16.39;53.80;100113.34;5078379;28;20101;-91
2022/09/16 15:49:35;;;;;;;1.98;0.40;;;;;;;16.70;52.92;100101.06;5090548;28;20407;-90
2022/09/16 15:53:09;;;;;;;0.93;0.25;;;;;;;16.59;54.03;100103.78;5090663;28;20061;-90
2022/09/16 16:00:13;;;;;;;2.22;0.50;;;;;;;16.82;51.44;100109.78;5090313;28;20596;-82
2022/09/16 16:03:19;;;;;;;1.75;0.35;;;;;;;16.70;52.19;100105.50;5088780;28;20051;-83
2022/09/16 16:06:46;;;;;;;3.72;0.50;;;;;;;15.77;52.17;100104.34;5088331;28;20051;-83
2022/09/16 16:09:53;;;;;;;1.42;0.52;;;;;;;15.21;54.33;100116.72;5085503;28;20055;-84
2022/09/16 16:12:59;;;;;;;1.33;0.60;;;;;;;15.26;53.73;100110.13;5075510;28;20047;-84
2022/09/16 16:16:03;;;;;;;3.00;0.57;;;;;;;15.82;51.97;100103.97;5080360;28;20510;-83
2022/09/16 16:19:07;;;;;;;1.58;0.50;;;;;;;15.31;53.30;100104.50;5089549;28;20055;-86
2022/09/16 16:22:12;;;;;;;1.50;0.40;;;;;;;15.65;52.81;100107.09;5090494;28;20583;-84
2022/09/16 16:25:18;;;;;;;1.98;0.70;;;;;;;15.33;52.88;100113.13;5088863;28;20054;-86
2022/09/16 16:28:22;;;;;;;2.38;1.10;;;;;;;14.99;54.02;100113.09;5076958;28;20055;-84
2022/09/16 16:31:27;;;;;;;4.05;2.05;;;;;;;15.35;52.82;100112.06;5089366;28;20450;-85
2022/09/16 16:34:33;;;;;;;4.07;1.20;;;;;;;15.94;52.41;100108.25;5089378;28;20093;-83
2022/09/16 16:37:36;;;;;;;3.60;1.92;;;;;;;16.09;51.87;100108.81;5089471;28;20580;-84